Time;durP1;ratioP1;P1;durP2;ratioP2;P2;SDS_P1;SDS_P2;PMS_P1;PMS_P2;Temp;Humidity;BMP_temperature;BMP_pressure;BME280_temperature;BME280_humidity;BME280_pressure;Samples;Min_cycle;Max_cycle;Signal;HPM_P1;HPM_P2
2023/06/08 00:02:03;;;;;;;0.10;0.10;;;;;;;21.14;100.00;101886.22;10452713;28;20057;-82
2023/06/08 00:07:08;;;;;;;1.38;0.32;;;;;;;21.02;100.00;101887.97;10439751;28;20049;-81
2023/06/08 00:12:11;;;;;;;1.95;1.00;;;;;;;20.51;100.00;101882.75;10423319;28;20075;-82
2023/06/08 00:17:13;;;;;;;0.40;0.17;;;;;;;21.09;100.00;101880.97;10446647;28;20403;-82
2023/06/08 00:22:15;;;;;;;0.45;0.30;;;;;;;21.16;100.00;101879.19;10443163;28;20095;-82
2023/06/08 00:27:17;;;;;;;0.82;0.45;;;;;;;21.30;100.00;101876.53;10430888;28;20048;-82
2023/06/08 00:32:18;;;;;;;0.70;0.70;;;;;;;20.74;100.00;101866.19;10426915;28;20052;-81
2023/06/08 00:37:20;;;;;;;0.22;0.22;;;;;;;20.96;100.00;101884.50;10448270;28;20040;-81
2023/06/08 00:42:21;;;;;;;0.47;0.35;;;;;;;20.73;100.00;101877.56;10430035;28;20037;-81
2023/06/08 00:47:23;;;;;;;0.63;0.30;;;;;;;20.27;100.00;101875.75;10433741;28;20211;-81
2023/06/08 00:52:25;;;;;;;0.93;0.68;;;;;;;20.60;100.00;101869.66;10444748;28;20038;-81
2023/06/08 00:57:28;;;;;;;0.60;0.60;;;;;;;21.52;100.00;101875.59;10444193;28;20067;-82
2023/06/08 01:02:31;;;;;;;0.57;0.35;;;;;;;20.64;100.00;101867.91;10455847;28;20068;-81
2023/06/08 01:07:48;;;;;;;0.38;0.30;;;;;;;19.92;100.00;101869.59;10448629;28;20486;-83
2023/06/08 01:13:00;;;;;;;5.25;2.83;;;;;;;20.04;100.00;101862.66;10453660;28;20049;-82
2023/06/08 01:18:07;;;;;;;0.65;0.57;;;;;;;20.26;100.00;101856.56;10471967;28;20139;-81
2023/06/08 01:23:25;;;;;;;0.95;0.47;;;;;;;19.57;100.00;101862.47;10451983;28;20133;-83
2023/06/08 01:28:28;;;;;;;0.40;0.40;;;;;;;20.05;100.00;101853.94;10460089;28;20043;-82
2023/06/08 01:33:31;;;;;;;0.57;0.35;;;;;;;19.65;100.00;101866.00;10432096;28;20068;-82
2023/06/08 01:38:40;;;;;;;1.13;0.90;;;;;;;19.73;100.00;101858.16;10448695;28;20045;-82
2023/06/08 01:43:46;;;;;;;0.77;0.60;;;;;;;19.73;100.00;101855.56;10455741;28;20043;-83
2023/06/08 01:48:50;;;;;;;0.45;0.10;;;;;;;19.99;100.00;101859.16;10456628;28;20041;-81
2023/06/08 01:54:03;;;;;;;0.52;0.43;;;;;;;19.90;100.00;101862.59;10430973;28;20056;-82
2023/06/08 01:59:05;;;;;;;4.97;3.10;;;;;;;19.73;100.00;101862.53;10450276;28;20041;-81
2023/06/08 02:04:06;;;;;;;1.75;0.70;;;;;;;19.97;100.00;101853.91;10434773;28;20400;-81
2023/06/08 02:09:09;;;;;;;1.25;0.80;;;;;;;20.03;100.00;101855.66;10449468;28;20205;-83
2023/06/08 02:14:14;;;;;;;0.68;0.57;;;;;;;19.86;100.00;101847.78;10450396;28;20110;-81
2023/06/08 02:19:16;;;;;;;0.20;0.13;;;;;;;20.28;100.00;101849.59;10449746;28;20474;-81
2023/06/08 02:24:19;;;;;;;1.40;0.60;;;;;;;20.33;100.00;101849.59;10448857;28;20052;-82
2023/06/08 02:29:20;;;;;;;0.30;0.30;;;;;;;19.96;100.00;101855.66;10431747;28;20163;-81
2023/06/08 02:34:23;;;;;;;0.73;0.52;;;;;;;20.19;100.00;101852.22;10433804;28;20045;-81
2023/06/08 02:39:24;;;;;;;0.85;0.50;;;;;;;20.60;100.00;101845.22;10447829;28;20048;-81
2023/06/08 02:44:27;;;;;;;15.60;1.08;;;;;;;19.59;100.00;101850.31;10450277;28;20049;-82
2023/06/08 02:49:29;;;;;;;0.88;0.80;;;;;;;20.25;100.00;101849.59;10431445;28;20128;-82
2023/06/08 02:54:30;;;;;;;2.53;1.10;;;;;;;20.06;100.00;101840.00;10431127;28;20107;-84
2023/06/08 02:59:32;;;;;;;0.43;0.43;;;;;;;19.57;100.00;101841.56;10431655;28;20485;-84
2023/06/08 03:04:34;;;;;;;1.25;0.50;;;;;;;19.78;100.00;101834.66;10452827;28;20048;-80
2023/06/08 03:09:39;;;;;;;1.55;0.77;;;;;;;19.37;100.00;101825.81;10440343;28;20052;-80
2023/06/08 03:14:45;;;;;;;2.20;1.33;;;;;;;19.57;100.00;101820.66;10456082;28;20086;-80
2023/06/08 03:19:46;;;;;;;1.02;0.50;;;;;;;19.42;100.00;101815.38;10478660;28;20037;-80
2023/06/08 03:24:52;;;;;;;4.13;1.00;;;;;;;19.64;100.00;101818.94;10456438;28;20072;-81
2023/06/08 03:29:55;;;;;;;5.13;0.60;;;;;;;20.89;100.00;101812.91;10455750;28;20132;-80
2023/06/08 03:35:04;;;;;;;0.55;0.30;;;;;;;19.69;100.00;101821.59;10440248;28;20045;-81
2023/06/08 03:40:08;;;;;;;2.65;1.80;;;;;;;19.93;100.00;101824.25;10439105;28;20041;-80
2023/06/08 03:45:10;;;;;;;0.63;0.63;;;;;;;19.54;100.00;101823.28;10439017;28;20048;-80
2023/06/08 03:50:13;;;;;;;0.60;0.50;;;;;;;19.39;100.00;101815.38;10458346;28;20044;-80
2023/06/08 03:55:16;;;;;;;0.95;0.77;;;;;;;19.56;100.00;101818.91;10426940;28;20046;-81
2023/06/08 04:00:20;;;;;;;0.20;0.20;;;;;;;19.17;100.00;101823.13;10397348;28;20497;-81
2023/06/08 04:05:25;;;;;;;1.27;0.82;;;;;;;19.37;100.00;101820.59;10430055;28;20100;-81
2023/06/08 04:10:27;;;;;;;3.67;0.60;;;;;;;19.69;100.00;101809.38;10418507;28;20504;-81
2023/06/08 04:15:29;;;;;;;1.33;0.80;;;;;;;19.36;100.00;101811.00;10438088;28;20095;-80
2023/06/08 04:20:32;;;;;;;0.85;0.77;;;;;;;20.84;100.00;101807.69;10454414;28;20063;-81
2023/06/08 04:25:34;;;;;;;0.95;0.52;;;;;;;20.15;100.00;101808.59;10468908;28;20051;-81
2023/06/08 04:30:36;;;;;;;1.70;1.25;;;;;;;19.62;100.00;101802.38;10463613;28;20495;-80
2023/06/08 04:35:38;;;;;;;0.25;0.25;;;;;;;19.73;100.00;101810.25;10454278;28;20049;-81
2023/06/08 04:40:53;;;;;;;1.50;0.77;;;;;;;20.37;100.00;101800.72;10438266;28;20041;-80
2023/06/08 04:46:04;;;;;;;0.70;0.47;;;;;;;20.18;100.00;101805.13;10422188;28;20047;-82
2023/06/08 04:51:09;;;;;;;2.58;0.52;;;;;;;19.45;100.00;101810.19;10438357;28;20114;-81
2023/06/08 04:56:18;;;;;;;0.85;0.52;;;;;;;20.84;100.00;101809.44;10437283;28;20083;-80
2023/06/08 05:01:23;;;;;;;0.80;0.70;;;;;;;19.92;100.00;101809.44;10454666;28;20048;-81
2023/06/08 05:06:25;;;;;;;1.02;0.57;;;;;;;20.05;100.00;101804.25;10469250;28;20055;-81
2023/06/08 05:11:27;;;;;;;1.48;1.33;;;;;;;20.23;100.00;101809.47;10485681;28;20049;-81
2023/06/08 05:16:28;;;;;;;0.85;0.65;;;;;;;19.94;100.00;101799.84;10489054;28;20053;-82
2023/06/08 05:21:30;;;;;;;1.40;0.63;;;;;;;20.14;100.00;101801.63;10476348;28;20057;-81
2023/06/08 05:26:32;;;;;;;4.10;1.13;;;;;;;20.05;100.00;101806.84;10442573;28;20408;-81
2023/06/08 05:31:34;;;;;;;3.47;1.52;;;;;;;20.94;100.00;101799.81;10460273;28;20053;-83
2023/06/08 05:36:35;;;;;;;1.50;0.95;;;;;;;20.42;100.00;101802.47;10459232;28;20053;-81
2023/06/08 05:41:39;;;;;;;4.03;1.25;;;;;;;19.77;100.00;101801.56;10432349;28;20045;-81
2023/06/08 05:46:41;;;;;;;1.10;0.70;;;;;;;20.17;100.00;101801.63;10466756;28;20049;-81
2023/06/08 05:51:42;;;;;;;1.15;0.65;;;;;;;20.39;100.00;101806.84;10434094;28;20060;-80
2023/06/08 05:56:44;;;;;;;1.10;0.85;;;;;;;20.08;100.00;101810.34;10471080;28;20559;-82
2023/06/08 06:01:47;;;;;;;2.03;0.73;;;;;;;20.10;100.00;101810.34;10469472;28;20033;-81
2023/06/08 06:06:49;;;;;;;2.85;1.17;;;;;;;19.97;100.00;101793.75;10460668;28;20041;-81
2023/06/08 06:11:50;;;;;;;2.05;1.20;;;;;;;20.34;100.00;101800.75;10470827;28;20048;-81
2023/06/08 06:16:52;;;;;;;1.65;1.05;;;;;;;21.34;100.00;101804.88;10471327;28;20053;-82
2023/06/08 06:22:09;;;;;;;0.57;0.50;;;;;;;20.90;100.00;101812.03;10449098;28;20045;-82
2023/06/08 06:27:11;;;;;;;3.55;0.70;;;;;;;20.65;100.00;101804.19;10438050;28;20392;-81
2023/06/08 06:32:13;;;;;;;1.70;0.95;;;;;;;20.64;100.00;101812.06;10456242;28;20051;-84
2023/06/08 06:37:15;;;;;;;0.63;0.50;;;;;;;21.02;100.00;101803.28;10457398;28;20036;-82
2023/06/08 06:42:16;;;;;;;0.93;0.52;;;;;;;21.15;100.00;101807.59;10438913;28;20045;-81
2023/06/08 06:47:27;;;;;;;1.33;0.75;;;;;;;21.44;100.00;101806.59;10457152;28;20076;-82
2023/06/08 06:52:29;;;;;;;1.20;0.32;;;;;;;21.59;100.00;101815.28;10439439;28;20049;-81
2023/06/08 06:57:32;;;;;;;0.90;0.17;;;;;;;20.82;100.00;101821.66;10446951;28;20063;-80
2023/06/08 07:02:33;;;;;;;0.35;0.30;;;;;;;21.36;100.00;101831.97;10456007;28;20051;-82
2023/06/08 07:07:36;;;;;;;2.63;0.65;;;;;;;21.59;100.00;101831.91;10439298;28;20045;-82
2023/06/08 07:12:38;;;;;;;0.55;0.55;;;;;;;21.42;100.00;101834.53;10447317;28;20056;-81
2023/06/08 07:17:39;;;;;;;0.35;0.30;;;;;;;21.49;100.00;101838.88;10446768;28;20471;-82
2023/06/08 07:22:41;;;;;;;0.85;0.57;;;;;;;21.64;100.00;101837.09;10477441;28;20484;-82
2023/06/08 07:28:03;;;;;;;0.32;0.25;;;;;;;21.69;100.00;101837.97;10471414;28;20041;-82
2023/06/08 07:33:07;;;;;;;1.25;0.85;;;;;;;21.94;100.00;101829.91;10459819;28;20049;-82
2023/06/08 07:38:10;;;;;;;0.45;0.30;;;;;;;21.60;100.00;101825.75;10437658;28;20048;-82
2023/06/08 07:43:11;;;;;;;0.73;0.30;;;;;;;21.52;100.00;101827.53;10468070;28;20052;-82
2023/06/08 07:48:13;;;;;;;0.63;0.50;;;;;;;22.17;100.00;101829.78;10460208;28;20114;-81
2023/06/08 07:53:17;;;;;;;0.20;0.20;;;;;;;21.53;100.00;101832.75;10429418;28;20098;-81
2023/06/08 07:58:19;;;;;;;1.33;0.88;;;;;;;21.66;100.00;101822.22;10455052;28;20399;-82
2023/06/08 08:03:21;;;;;;;1.40;1.20;;;;;;;22.32;100.00;101823.50;10478336;28;20040;-81
2023/06/08 08:08:22;;;;;;;1.95;1.08;;;;;;;22.68;100.00;101821.44;10450903;28;20131;-83
2023/06/08 08:13:24;;;;;;;0.35;0.35;;;;;;;21.88;100.00;101833.47;10451781;28;20056;-82
2023/06/08 08:18:26;;;;;;;1.25;0.85;;;;;;;22.71;100.00;101826.69;10461960;28;20044;-82
2023/06/08 08:23:27;;;;;;;0.60;0.40;;;;;;;22.62;100.00;101819.78;10443137;28;20478;-82
2023/06/08 08:28:29;;;;;;;4.90;1.17;;;;;;;23.28;99.45;101823.44;10450992;28;20091;-82
2023/06/08 08:33:31;;;;;;;1.38;0.98;;;;;;;23.18;97.76;101823.59;10459185;28;20051;-83
2023/06/08 08:38:32;;;;;;;0.43;0.43;;;;;;;22.17;98.73;101830.63;10464136;28;20068;-83
2023/06/08 08:43:58;;;;;;;0.68;0.20;;;;;;;23.47;96.14;101814.44;10453751;28;20526;-81
2023/06/08 08:49:04;;;;;;;1.65;0.60;;;;;;;25.11;96.97;101815.22;10453089;28;20044;-83
2023/06/08 08:54:09;;;;;;;0.30;0.30;;;;;;;24.96;89.09;101815.53;10468625;28;20072;-83
2023/06/08 08:59:11;;;;;;;1.45;1.13;;;;;;;25.28;89.58;101806.94;10453343;28;20041;-83
2023/06/08 09:04:13;;;;;;;2.10;0.40;;;;;;;24.70;90.16;101809.00;10452681;28;20068;-81
2023/06/08 09:09:15;;;;;;;0.77;0.35;;;;;;;25.93;91.21;101800.25;10452922;28;20512;-82
2023/06/08 09:14:16;;;;;;;0.65;0.65;;;;;;;25.27;87.84;101810.50;10452041;28;20147;-80
2023/06/08 09:19:18;;;;;;;1.55;1.15;;;;;;;24.93;88.08;101798.00;10455879;28;20067;-81
2023/06/08 09:24:22;;;;;;;1.20;0.70;;;;;;;26.70;87.77;101780.66;10448629;28;20549;-83
2023/06/08 09:29:44;;;;;;;0.40;0.40;;;;;;;26.18;85.70;101788.22;10447109;28;20048;-81
2023/06/08 09:34:55;;;;;;;3.00;0.68;;;;;;;26.20;86.21;101775.84;10451877;28;20165;-83
2023/06/08 09:40:00;;;;;;;0.50;0.47;;;;;;;27.99;83.29;101765.31;10466386;28;20087;-82
2023/06/08 09:45:11;;;;;;;1.52;0.75;;;;;;;26.50;84.21;101768.88;10439279;28;20317;-82
2023/06/08 09:50:13;;;;;;;0.38;0.30;;;;;;;27.79;82.33;101762.44;10455873;28;20055;-82
2023/06/08 09:55:16;;;;;;;2.05;0.95;;;;;;;28.97;79.88;101767.19;10456399;28;20045;-83
2023/06/08 10:00:23;;;;;;;0.20;0.10;;;;;;;28.77;82.94;101763.50;10459059;28;20475;-82
2023/06/08 10:05:29;;;;;;;0.93;0.82;;;;;;;29.39;78.67;101768.28;10463872;28;20075;-83
2023/06/08 10:10:36;;;;;;;2.20;0.73;;;;;;;29.85;76.00;101754.88;10451614;28;20404;-83
2023/06/08 10:15:38;;;;;;;1.48;0.80;;;;;;;28.72;79.46;101759.31;10485361;28;20041;-81
2023/06/08 10:20:40;;;;;;;1.40;0.80;;;;;;;31.05;73.61;101745.22;10460420;28;20144;-81
2023/06/08 10:25:44;;;;;;;1.23;0.75;;;;;;;28.31;77.70;101749.25;10441684;28;20055;-81
2023/06/08 10:30:46;;;;;;;1.00;0.88;;;;;;;28.49;73.88;101737.97;10460189;28;20152;-81
2023/06/08 10:36:07;;;;;;;1.15;0.65;;;;;;;29.92;76.65;101732.47;10491007;28;20063;-81
2023/06/08 10:41:08;;;;;;;2.35;1.25;;;;;;;30.31;73.27;101738.78;10448624;28;20500;-82
2023/06/08 10:46:12;;;;;;;3.78;1.15;;;;;;;28.65;74.58;101737.41;10456526;28;20488;-81
2023/06/08 10:51:22;;;;;;;0.50;0.40;;;;;;;31.41;74.18;101710.66;10442242;28;20408;-82
2023/06/08 10:56:28;;;;;;;0.35;0.30;;;;;;;31.73;70.52;101712.66;10437326;28;20049;-85
2023/06/08 11:01:31;;;;;;;1.02;0.50;;;;;;;31.74;69.31;101706.41;10462468;28;20136;-81
2023/06/08 11:06:33;;;;;;;2.20;1.38;;;;;;;31.48;69.14;101705.88;10439133;28;20056;-81
2023/06/08 11:11:48;;;;;;;0.55;0.38;;;;;;;32.00;69.58;101691.72;10484579;28;20048;-81
2023/06/08 11:16:51;;;;;;;1.50;0.52;;;;;;;31.13;70.33;101690.69;10441538;28;20051;-80
2023/06/08 11:21:56;;;;;;;0.88;0.82;;;;;;;31.19;69.49;101683.38;10455174;28;20120;-83
2023/06/08 11:27:01;;;;;;;4.43;1.10;;;;;;;31.13;68.93;101682.72;10489584;28;20510;-82
2023/06/08 11:32:11;;;;;;;2.08;0.85;;;;;;;31.80;67.43;101679.44;10469710;28;20033;-83
2023/06/08 11:37:14;;;;;;;2.40;1.05;;;;;;;31.30;66.63;101671.25;10479699;28;20534;-81
2023/06/08 11:42:16;;;;;;;1.52;1.05;;;;;;;31.33;69.46;101665.78;10455306;28;20154;-80
2023/06/08 11:47:18;;;;;;;0.60;0.60;;;;;;;32.64;66.29;101657.22;10490790;28;20059;-81
2023/06/08 11:52:24;;;;;;;0.95;0.63;;;;;;;31.44;66.95;101659.06;10448929;28;20049;-80
2023/06/08 11:57:41;;;;;;;1.05;0.95;;;;;;;31.36;67.06;101650.59;10480923;28;20057;-80
2023/06/08 12:02:47;;;;;;;3.05;0.82;;;;;;;33.01;67.18;101643.63;10460611;28;20048;-82
2023/06/08 12:07:56;;;;;;;0.40;0.30;;;;;;;33.28;62.63;101638.50;10479406;28;20496;-81
2023/06/08 12:13:00;;;;;;;0.60;0.52;;;;;;;33.16;65.54;101645.41;10437630;28;20500;-82
2023/06/08 12:18:02;;;;;;;0.15;0.15;;;;;;;32.51;62.72;101638.34;10461865;28;20041;-80
2023/06/08 12:23:04;;;;;;;0.88;0.80;;;;;;;31.30;63.63;101634.00;10476320;28;20041;-80
2023/06/08 12:28:16;;;;;;;0.95;0.77;;;;;;;33.02;62.86;101621.34;10445425;28;20496;-83
2023/06/08 12:33:19;;;;;;;0.28;0.25;;;;;;;32.90;63.53;101618.41;10451663;28;20393;-83
2023/06/08 12:38:21;;;;;;;0.40;0.30;;;;;;;32.30;64.25;101623.53;10467228;28;20071;-85
2023/06/08 12:43:24;;;;;;;0.22;0.20;;;;;;;32.53;61.81;101615.13;10476385;28;20045;-81
2023/06/08 12:48:28;;;;;;;1.08;0.60;;;;;;;33.34;60.40;101605.25;10474035;28;20067;-82
2023/06/08 12:53:30;;;;;;;0.30;0.30;;;;;;;32.14;61.01;101603.03;10466781;28;20075;-84
2023/06/08 12:58:31;;;;;;;0.50;0.30;;;;;;;31.44;61.84;101584.50;10466904;28;20400;-81
2023/06/08 13:03:34;;;;;;;0.57;0.47;;;;;;;33.68;59.91;101581.84;10485335;28;20052;-83
2023/06/08 13:08:36;;;;;;;0.50;0.20;;;;;;;34.18;60.79;101568.94;10460446;28;20071;-81
2023/06/08 13:13:38;;;;;;;0.10;0.10;;;;;;;34.02;57.95;101563.72;10459008;28;20053;-82
2023/06/08 13:18:41;;;;;;;0.30;0.20;;;;;;;33.29;56.94;101553.91;10463010;28;20051;-82
2023/06/08 13:23:42;;;;;;;1.08;0.93;;;;;;;32.00;57.97;101554.94;10441639;28;20123;-82
2023/06/08 13:28:44;;;;;;;1.50;0.40;;;;;;;32.87;58.11;101548.34;10449034;28;20183;-85
2023/06/08 13:33:48;;;;;;;0.30;0.30;;;;;;;32.98;55.88;101535.25;10472059;28;20439;-81
2023/06/08 13:38:49;;;;;;;0.57;0.40;;;;;;;33.13;57.17;101537.94;10458175;28;20136;-84
2023/06/08 13:43:51;;;;;;;0.28;0.25;;;;;;;33.43;57.31;101529.06;10467949;28;20049;-85
2023/06/08 13:48:53;;;;;;;0.35;0.35;;;;;;;32.31;55.69;101530.16;10480194;28;20048;-82
2023/06/08 13:53:55;;;;;;;0.93;0.40;;;;;;;33.33;56.56;101512.72;10448495;28;20140;-84
2023/06/08 13:59:01;;;;;;;0.22;0.20;;;;;;;33.99;56.05;101502.44;10458802;28;20135;-83
2023/06/08 14:04:02;;;;;;;0.17;0.10;;;;;;;33.96;54.69;101499.97;10458141;28;20053;-83
2023/06/08 14:09:04;;;;;;;0.10;0.10;;;;;;;33.51;55.22;101495.56;10448110;28;20045;-83
2023/06/08 14:14:06;;;;;;;0.85;0.40;;;;;;;33.24;53.94;101497.25;10450655;28;20095;-83
2023/06/08 14:19:08;;;;;;;0.20;0.20;;;;;;;33.18;54.73;101494.00;10453222;28;20140;-82
2023/06/08 14:24:10;;;;;;;0.77;0.47;;;;;;;33.97;52.37;101485.63;10438989;28;20401;-83
2023/06/08 14:29:11;;;;;;;0.38;0.38;;;;;;;33.89;51.90;101485.28;10429863;28;20048;-85
2023/06/08 14:34:13;;;;;;;0.43;0.25;;;;;;;34.10;52.59;101478.53;10450629;28;20914;-83
2023/06/08 14:39:17;;;;;;;0.30;0.25;;;;;;;34.93;51.57;101474.03;10450608;28;20051;-82
2023/06/08 14:44:19;;;;;;;0.47;0.25;;;;;;;34.15;52.70;101463.03;10460939;28;20111;-84
2023/06/08 14:49:20;;;;;;;0.30;0.20;;;;;;;33.47;50.42;101466.47;10459999;28;20048;-83
2023/06/08 14:54:22;;;;;;;2.33;0.50;;;;;;;33.63;49.48;101469.03;10459254;28;20049;-82
2023/06/08 14:59:24;;;;;;;2.53;0.40;;;;;;;33.82;53.21;101472.28;10460886;28;20072;-85
2023/06/08 15:04:25;;;;;;;0.35;0.35;;;;;;;33.89;50.81;101456.72;10471236;28;20052;-84
2023/06/08 15:09:27;;;;;;;1.40;0.35;;;;;;;33.93;51.27;101462.72;10482953;28;20095;-83
2023/06/08 15:14:29;;;;;;;0.47;0.40;;;;;;;33.95;50.79;101455.47;10464522;28;20059;-85
2023/06/08 15:19:31;;;;;;;3.63;1.00;;;;;;;33.79;50.65;101461.78;10452021;28;20400;-82
2023/06/08 15:24:32;;;;;;;1.40;0.75;;;;;;;33.55;52.45;101450.00;10456535;28;20048;-86
2023/06/08 15:29:34;;;;;;;0.55;0.50;;;;;;;32.89;51.02;101448.56;10457111;28;20139;-82
2023/06/08 15:34:36;;;;;;;1.33;0.57;;;;;;;33.70;51.19;101440.97;10462258;28;20635;-84
2023/06/08 15:39:38;;;;;;;0.22;0.22;;;;;;;33.72;51.52;101424.88;10454633;28;20049;-81
2023/06/08 15:44:40;;;;;;;0.77;0.52;;;;;;;34.16;50.43;101424.66;10470395;28;20132;-85
2023/06/08 15:49:42;;;;;;;0.20;0.20;;;;;;;34.00;50.71;101426.63;10428424;28;20377;-83
2023/06/08 15:54:44;;;;;;;0.50;0.38;;;;;;;33.67;49.08;101420.66;10455684;28;20044;-85
2023/06/08 15:59:45;;;;;;;0.30;0.30;;;;;;;33.45;50.70;101428.31;10464111;28;20041;-85
2023/06/08 16:04:48;;;;;;;1.33;0.88;;;;;;;33.70;51.90;101419.59;10452333;28;20056;-82
2023/06/08 16:09:50;;;;;;;0.70;0.45;;;;;;;33.35;51.08;101425.38;10437359;28;20045;-84
2023/06/08 16:14:52;;;;;;;1.23;0.68;;;;;;;33.84;49.58;101421.44;10452081;28;20384;-83
2023/06/08 16:19:53;;;;;;;0.55;0.43;;;;;;;33.64;50.10;101420.00;10456013;28;20033;-83
2023/06/08 16:24:55;;;;;;;0.55;0.30;;;;;;;33.80;50.29;101420.75;10457635;28;20049;-83
2023/06/08 16:29:56;;;;;;;0.65;0.17;;;;;;;33.38;49.87;101415.34;10444375;28;20051;-84
2023/06/08 16:34:58;;;;;;;0.75;0.50;;;;;;;33.09;49.26;101414.50;10449339;28;20140;-83
2023/06/08 16:40:00;;;;;;;0.50;0.30;;;;;;;34.10;49.75;101402.84;10437605;28;20055;-82
2023/06/08 16:45:02;;;;;;;0.30;0.30;;;;;;;33.84;48.82;101395.59;10435162;28;20499;-83
2023/06/08 16:50:06;;;;;;;1.65;0.68;;;;;;;33.51;51.20;101404.78;10459116;28;20480;-84
2023/06/08 16:55:08;;;;;;;0.30;0.30;;;;;;;34.09;48.82;101387.75;10452377;28;20052;-83
2023/06/08 17:00:11;;;;;;;0.15;0.15;;;;;;;32.87;50.20;101389.13;10459292;28;20496;-84
2023/06/08 17:05:13;;;;;;;0.50;0.40;;;;;;;33.20;49.90;101377.28;10448461;28;20041;-82
2023/06/08 17:10:16;;;;;;;0.55;0.43;;;;;;;32.42;50.46;101377.56;10464403;28;20503;-83
2023/06/08 17:15:18;;;;;;;0.30;0.20;;;;;;;33.30;50.88;101374.06;10462750;28;20131;-84
2023/06/08 17:20:21;;;;;;;0.28;0.28;;;;;;;33.30;50.79;101368.72;10468295;28;20067;-82
2023/06/08 17:25:23;;;;;;;0.30;0.20;;;;;;;33.38;51.33;101374.47;10441484;28;20049;-83
2023/06/08 17:30:25;;;;;;;0.25;0.25;;;;;;;33.59;50.01;101366.03;10441686;28;20479;-84
2023/06/08 17:35:26;;;;;;;0.98;0.22;;;;;;;33.18;50.73;101371.19;10465042;28;20140;-83
2023/06/08 17:40:28;;;;;;;0.28;0.17;;;;;;;33.94;49.00;101366.44;10474151;28;20051;-83
2023/06/08 17:45:29;;;;;;;0.52;0.40;;;;;;;33.13;49.67;101365.28;10439496;28;20480;-85
2023/06/08 17:50:31;;;;;;;0.60;0.52;;;;;;;33.85;49.54;101365.19;10457618;28;20163;-82
2023/06/08 17:55:36;;;;;;;0.68;0.45;;;;;;;33.01;49.13;101374.06;10460917;28;20048;-81
2023/06/08 18:00:38;;;;;;;0.25;0.25;;;;;;;32.66;51.21;101369.03;10464546;28;20052;-82
2023/06/08 18:05:40;;;;;;;0.32;0.32;;;;;;;32.15;52.16;101380.84;10457063;28;20056;-85
2023/06/08 18:10:43;;;;;;;0.20;0.20;;;;;;;32.50;52.89;101377.97;10455303;28;20048;-84
2023/06/08 18:15:44;;;;;;;0.47;0.20;;;;;;;32.73;52.29;101381.91;10455532;28;20064;-82
2023/06/08 18:20:46;;;;;;;0.28;0.17;;;;;;;33.15;51.95;101390.09;10472047;28;20048;-82
2023/06/08 18:25:48;;;;;;;0.25;0.25;;;;;;;32.96;51.27;101390.38;10478864;28;20056;-82
2023/06/08 18:30:49;;;;;;;0.13;0.13;;;;;;;32.86;51.61;101390.06;10464900;28;20037;-81
2023/06/08 18:35:51;;;;;;;0.20;0.20;;;;;;;32.67;51.46;101392.09;10438082;28;20064;-81
2023/06/08 18:40:53;;;;;;;0.38;0.28;;;;;;;31.57;54.66;101404.50;10454699;28;20489;-83
2023/06/08 18:45:54;;;;;;;0.30;0.25;;;;;;;31.28;55.98;101412.28;10466943;28;20084;-82
2023/06/08 18:50:57;;;;;;;0.70;0.20;;;;;;;31.13;57.72;101402.44;10453648;28;20484;-84
2023/06/08 18:55:58;;;;;;;0.75;0.57;;;;;;;30.96;57.23;101414.81;10471267;28;20079;-82
2023/06/08 19:01:00;;;;;;;0.47;0.38;;;;;;;30.74;57.66;101425.72;10461739;28;20053;-82
2023/06/08 19:06:02;;;;;;;0.28;0.28;;;;;;;30.99;57.05;101432.41;10455379;28;20049;-82
2023/06/08 19:11:03;;;;;;;0.80;0.30;;;;;;;30.76;57.57;101436.25;10446227;28;20041;-81
2023/06/08 19:16:07;;;;;;;0.43;0.20;;;;;;;30.22;58.74;101443.28;10461503;28;20060;-83
2023/06/08 19:21:09;;;;;;;0.55;0.40;;;;;;;29.97;57.52;101443.63;10446905;28;20102;-84
2023/06/08 19:26:11;;;;;;;0.50;0.45;;;;;;;30.06;57.68;101451.13;10472623;28;20407;-82
2023/06/08 19:31:13;;;;;;;0.20;0.10;;;;;;;29.69;58.49;101454.63;10465863;28;20045;-82
2023/06/08 19:36:15;;;;;;;0.43;0.20;;;;;;;30.16;59.03;101458.66;10440392;28;20046;-81
2023/06/08 19:41:17;;;;;;;0.05;0.05;;;;;;;29.51;60.74;101464.28;10453992;28;20503;-82
2023/06/08 19:46:20;;;;;;;2.40;0.52;;;;;;;29.05;61.86;101465.38;10438439;28;20052;-81
2023/06/08 19:51:21;;;;;;;0.65;0.40;;;;;;;28.43;62.90;101478.50;10455207;28;20136;-84
2023/06/08 19:56:23;;;;;;;0.00;0.00;;;;;;;28.52;62.51;101476.41;10458076;28;20041;-81
2023/06/08 20:01:25;;;;;;;0.00;0.00;;;;;;;28.49;62.50;101483.53;10461482;28;20051;-81
2023/06/08 20:06:26;;;;;;;0.10;0.10;;;;;;;28.02;63.62;101496.84;10465055;28;20458;-82
2023/06/08 20:11:28;;;;;;;0.10;0.10;;;;;;;28.47;63.80;101485.41;10437386;28;20500;-80
2023/06/08 20:16:30;;;;;;;0.88;0.50;;;;;;;27.80;64.69;101500.31;10480081;28;20056;-81
2023/06/08 20:21:32;;;;;;;0.25;0.25;;;;;;;27.66;65.33;101507.91;10446934;28;20504;-80
2023/06/08 20:26:34;;;;;;;0.10;0.10;;;;;;;27.78;65.24;101501.25;10451000;28;20055;-80
2023/06/08 20:31:38;;;;;;;0.08;0.08;;;;;;;27.47;65.86;101516.50;10481961;28;20041;-80
2023/06/08 20:36:40;;;;;;;0.55;0.45;;;;;;;27.12;67.20;101515.91;10469143;28;20400;-82
2023/06/08 20:41:41;;;;;;;0.38;0.32;;;;;;;27.22;66.73;101514.66;10473394;28;20045;-81
2023/06/08 20:46:43;;;;;;;1.67;0.55;;;;;;;27.12;67.72;101513.25;10466706;28;20056;-81
2023/06/08 20:51:46;;;;;;;0.20;0.20;;;;;;;27.26;67.06;101514.56;10452261;28;20488;-79
2023/06/08 20:56:48;;;;;;;16.58;0.70;;;;;;;26.78;67.63;101527.59;10459057;28;20055;-80
2023/06/08 21:01:50;;;;;;;0.30;0.30;;;;;;;27.04;66.77;101525.88;10469987;28;20056;-81
2023/06/08 21:06:54;;;;;;;1.17;0.38;;;;;;;26.60;67.46;101527.25;10467862;28;20052;-79
2023/06/08 21:11:56;;;;;;;1.13;0.47;;;;;;;26.69;67.43;101527.88;10473770;28;20049;-80
2023/06/08 21:16:57;;;;;;;0.20;0.15;;;;;;;26.43;66.59;101530.44;10451116;28;20135;-80
2023/06/08 21:21:59;;;;;;;0.00;0.00;;;;;;;26.78;65.09;101535.53;10464509;28;20045;-80
2023/06/08 21:27:01;;;;;;;0.00;0.00;;;;;;;26.57;64.80;101529.13;10467465;28;20082;-80
2023/06/08 21:32:03;;;;;;;0.00;0.00;;;;;;;26.54;63.65;101526.56;10448132;28;20067;-80
2023/06/08 21:37:05;;;;;;;0.22;0.08;;;;;;;26.52;62.77;101534.56;10468246;28;20059;-80
2023/06/08 21:42:08;;;;;;;0.00;0.00;;;;;;;26.57;61.44;101526.47;10447381;28;20052;-80
2023/06/08 21:47:10;;;;;;;1.10;0.57;;;;;;;26.59;60.83;101535.22;10462655;28;20497;-80
2023/06/08 21:52:12;;;;;;;0.17;0.17;;;;;;;26.17;59.79;101532.97;10455043;28;20059;-80
2023/06/08 21:57:14;;;;;;;0.13;0.13;;;;;;;25.95;60.80;101544.97;10461662;28;20589;-80
2023/06/08 22:02:15;;;;;;;1.45;0.40;;;;;;;25.98;60.07;101542.28;10437691;28;20103;-79
2023/06/08 22:07:17;;;;;;;0.15;0.08;;;;;;;25.83;59.74;101539.22;10477674;28;20049;-80
2023/06/08 22:12:21;;;;;;;0.00;0.00;;;;;;;25.66;60.74;101544.03;10462063;28;20045;-80
2023/06/08 22:17:23;;;;;;;0.00;0.00;;;;;;;25.76;60.54;101546.41;10446182;28;20033;-80
2023/06/08 22:22:25;;;;;;;1.75;0.20;;;;;;;25.77;59.88;101541.09;10448678;28;20478;-81
2023/06/08 22:27:26;;;;;;;0.17;0.13;;;;;;;25.11;60.25;101540.19;10458383;28;20490;-80
2023/06/08 22:32:28;;;;;;;0.00;0.00;;;;;;;25.70;59.18;101539.53;10452501;28;20045;-80
2023/06/08 22:37:30;;;;;;;0.38;0.38;;;;;;;25.76;57.99;101538.50;10463475;28;20075;-81
2023/06/08 22:42:31;;;;;;;0.00;0.00;;;;;;;25.46;58.13;101541.06;10425033;28;20048;-80
2023/06/08 22:47:34;;;;;;;0.05;0.05;;;;;;;25.31;58.20;101540.53;10435873;28;20136;-82
2023/06/08 22:52:36;;;;;;;9.75;0.70;;;;;;;25.35;58.08;101528.13;10445009;28;20102;-80
2023/06/08 22:57:37;;;;;;;0.05;0.05;;;;;;;25.18;57.82;101541.75;10445137;28;20056;-82
2023/06/08 23:02:39;;;;;;;0.00;0.00;;;;;;;25.14;57.26;101533.06;10436197;28;20491;-80
2023/06/08 23:07:43;;;;;;;0.00;0.00;;;;;;;24.87;58.47;101547.78;10465215;28;20053;-80